createdAt,value
2022-10-29T00:00:56.263Z,4.95
2022-10-29T00:03:27.869Z,5.17
2022-10-29T00:06:00.907Z,5.00
2022-10-29T00:08:33.050Z,4.83
2022-10-29T00:11:21.517Z,4.62
2022-10-29T00:13:54.931Z,5.05
2022-10-29T00:16:28.242Z,5.15
2022-10-29T00:18:58.601Z,5.05
2022-10-29T00:21:29.096Z,4.87
2022-10-29T00:23:59.983Z,5.30
2022-10-29T00:26:30.968Z,4.95
2022-10-29T00:29:01.459Z,4.80
2022-10-29T00:31:31.859Z,4.78
2022-10-29T00:34:02.501Z,4.85
2022-10-29T00:36:32.891Z,5.25
2022-10-29T00:39:03.282Z,4.75
2022-10-29T00:41:33.694Z,5.20
2022-10-29T00:44:22.227Z,4.70
2022-10-29T00:46:55.696Z,5.28
2022-10-29T00:49:27.495Z,5.55
2022-10-29T00:51:58.861Z,5.42
2022-10-29T00:54:31.116Z,4.80
2022-10-29T00:57:07.282Z,5.00
2022-10-29T00:59:37.951Z,5.17
2022-10-29T01:02:08.605Z,5.17
2022-10-29T01:04:40.470Z,5.87
2022-10-29T01:07:11.699Z,5.40
2022-10-29T01:09:42.538Z,5.50
2022-10-29T01:15:29.553Z,5.40
2022-10-29T01:18:02.997Z,5.65
2022-10-29T01:20:39.304Z,5.72
2022-10-29T01:23:27.120Z,5.58
2022-10-29T01:26:15.711Z,6.22
2022-10-29T01:29:00.873Z,6.12
2022-10-29T01:31:43.264Z,5.70
2022-10-29T01:34:39.303Z,5.55
2022-10-29T01:37:31.077Z,5.60
2022-10-29T01:40:27.494Z,5.55
2022-10-29T01:43:06.672Z,6.12
2022-10-29T01:45:40.279Z,6.25
2022-10-29T01:48:18.152Z,5.95
2022-10-29T01:50:51.609Z,5.67
2022-10-29T01:53:22.659Z,5.92
2022-10-29T01:55:53.047Z,5.78
2022-10-29T01:58:26.163Z,5.65
2022-10-29T02:01:05.471Z,6.30
2022-10-29T02:03:38.927Z,6.28
2022-10-29T02:06:32.014Z,5.87
2022-10-29T02:09:14.380Z,6.62
2022-10-29T02:11:53.918Z,5.75
2022-10-29T02:14:36.214Z,6.53
2022-10-29T02:17:08.277Z,6.20
2022-10-29T02:19:38.712Z,6.08
2022-10-29T02:22:09.191Z,7.03
2022-10-29T02:24:39.577Z,6.87
2022-10-29T02:27:10.056Z,6.62
2022-10-29T02:29:40.539Z,6.62
2022-10-29T02:32:11.033Z,6.62
2022-10-29T02:34:41.300Z,6.55
2022-10-29T02:37:11.702Z,6.67
2022-10-29T02:39:42.200Z,6.42
2022-10-29T02:42:12.599Z,6.90
2022-10-29T02:44:42.967Z,6.62
2022-10-29T02:47:13.311Z,5.97
2022-10-29T02:49:43.849Z,6.60
2022-10-29T02:52:14.273Z,22.40
2022-10-29T02:54:44.737Z,6.80
2022-10-29T02:57:15.238Z,6.70
2022-10-29T02:59:45.641Z,6.85
2022-10-29T03:02:16.098Z,5.65
2022-10-29T03:04:46.614Z,6.83
2022-10-29T03:07:16.993Z,6.80
2022-10-29T03:09:47.375Z,6.67
2022-10-29T03:12:17.789Z,6.78
2022-10-29T03:14:48.200Z,6.33
2022-10-29T03:17:18.533Z,6.87
2022-10-29T03:19:48.916Z,6.55
2022-10-29T03:22:19.375Z,6.28
2022-10-29T03:24:49.789Z,6.97
2022-10-29T03:27:20.214Z,6.85
2022-10-29T03:29:50.526Z,6.37
2022-10-29T03:32:20.932Z,6.87
2022-10-29T03:34:54.710Z,7.30
2022-10-29T03:37:23.304Z,6.97
2022-10-29T03:39:53.755Z,7.00
2022-10-29T03:42:24.171Z,7.05
2022-10-29T03:44:54.544Z,8.00
2022-10-29T03:47:24.935Z,7.35
2022-10-29T03:49:56.147Z,6.53
2022-10-29T03:52:26.478Z,7.33
2022-10-29T03:54:57.002Z,7.92
2022-10-29T03:57:27.341Z,7.55
2022-10-29T03:59:57.632Z,7.67
2022-10-29T04:02:28.603Z,8.28
2022-10-29T04:04:59.177Z,7.67
2022-10-29T04:07:29.510Z,7.85
2022-10-29T04:09:59.981Z,8.00
2022-10-29T04:12:30.363Z,7.40
2022-10-29T04:15:01.063Z,8.10
2022-10-29T04:17:31.454Z,7.35
2022-10-29T04:20:01.835Z,8.00
2022-10-29T04:24:12.199Z,7.70
2022-10-29T04:30:09.619Z,7.12
2022-10-29T04:32:40.075Z,7.30
2022-10-29T04:35:10.525Z,6.90
2022-10-29T04:37:40.968Z,7.90
2022-10-29T04:40:13.414Z,9.75
2022-10-29T04:42:43.780Z,8.75
2022-10-29T04:45:14.093Z,8.38
2022-10-29T04:47:44.526Z,7.60
2022-10-29T04:50:15.032Z,8.05
2022-10-29T04:52:45.468Z,7.37
2022-10-29T04:55:16.119Z,7.33
2022-10-29T04:57:50.780Z,8.45
2022-10-29T05:00:21.634Z,8.83
2022-10-29T05:02:53.725Z,7.30
2022-10-29T05:05:24.661Z,7.70
2022-10-29T05:07:59.620Z,7.42
2022-10-29T05:10:32.394Z,7.12
2022-10-29T05:13:07.099Z,8.05
2022-10-29T05:15:38.228Z,7.78
2022-10-29T05:18:09.001Z,7.25
2022-10-29T05:20:39.466Z,7.33
2022-10-29T05:23:12.412Z,8.33
2022-10-29T05:25:43.002Z,7.80
2022-10-29T05:28:17.555Z,7.78
2022-10-29T05:30:49.593Z,7.60
2022-10-29T05:33:23.253Z,8.15
2022-10-29T05:35:53.627Z,10.05
2022-10-29T05:38:23.965Z,8.10
2022-10-29T05:40:54.277Z,7.75
2022-10-29T05:43:24.576Z,7.60
2022-10-29T05:45:55.296Z,8.30
2022-10-29T05:48:25.708Z,7.50
2022-10-29T05:50:58.063Z,7.65
2022-10-29T05:53:28.468Z,7.72
2022-10-29T05:55:59.990Z,8.25
2022-10-29T05:58:30.398Z,8.35
2022-10-29T06:01:00.802Z,7.60
2022-10-29T06:03:31.268Z,8.48
2022-10-29T06:06:01.801Z,8.10
2022-10-29T06:08:32.166Z,8.25
2022-10-29T06:11:03.453Z,7.47
2022-10-29T06:13:33.989Z,8.03
2022-10-29T06:16:04.569Z,8.25
2022-10-29T06:18:34.956Z,8.13
2022-10-29T06:21:05.811Z,8.40
2022-10-29T06:23:36.200Z,8.28
2022-10-29T06:26:06.775Z,7.72
2022-10-29T06:28:37.181Z,7.72
2022-10-29T06:31:07.567Z,7.87
2022-10-29T06:33:37.919Z,7.90
2022-10-29T06:36:08.565Z,8.20
2022-10-29T06:38:39.220Z,8.28
2022-10-29T06:41:09.926Z,8.63
2022-10-29T06:43:40.332Z,7.62
2022-10-29T06:46:10.770Z,8.05
2022-10-29T06:48:41.136Z,8.68
2022-10-29T06:51:11.610Z,8.90
2022-10-29T06:53:42.050Z,9.10
2022-10-29T06:56:12.422Z,16.73
2022-10-29T06:58:42.816Z,8.58
2022-10-29T07:01:13.251Z,8.18
2022-10-29T07:03:43.598Z,8.15
2022-10-29T07:06:13.989Z,8.08
2022-10-29T07:08:44.409Z,8.25
2022-10-29T07:11:14.963Z,8.75
2022-10-29T07:13:45.423Z,8.03
2022-10-29T07:16:15.789Z,8.58
2022-10-29T07:18:46.214Z,7.90
2022-10-29T07:21:16.584Z,7.58
2022-10-29T07:23:47.043Z,8.33
2022-10-29T07:26:17.604Z,7.75
2022-10-29T07:28:48.063Z,8.93
2022-10-29T07:31:18.453Z,7.85
2022-10-29T07:33:48.862Z,9.05
2022-10-29T07:36:19.245Z,10.50
2022-10-29T07:38:49.938Z,8.65
2022-10-29T07:41:20.260Z,8.15
2022-10-29T07:43:50.747Z,8.03
2022-10-29T07:46:21.042Z,7.78
2022-10-29T07:48:51.387Z,8.08
2022-10-29T07:51:21.979Z,7.97
2022-10-29T07:53:52.388Z,7.80
2022-10-29T07:56:22.820Z,7.87
2022-10-29T07:58:53.121Z,8.10
2022-10-29T08:01:23.585Z,8.30
2022-10-29T08:03:54.125Z,7.62
2022-10-29T08:06:24.504Z,8.00
2022-10-29T08:08:55.981Z,9.10
2022-10-29T08:11:26.346Z,10.10
2022-10-29T08:13:56.778Z,10.50
2022-10-29T08:16:27.325Z,8.33
2022-10-29T08:18:57.852Z,8.40
2022-10-29T08:21:28.203Z,8.23
2022-10-29T08:23:58.603Z,8.35
2022-10-29T08:26:29.012Z,7.62
2022-10-29T08:28:59.323Z,8.88
2022-10-29T08:31:29.740Z,8.50
2022-10-29T08:34:00.128Z,8.00
2022-10-29T08:36:30.435Z,7.78
2022-10-29T08:39:00.862Z,7.80
2022-10-29T08:41:52.327Z,8.20
2022-10-29T08:44:45.338Z,8.25
2022-10-29T08:47:20.757Z,7.67
2022-10-29T08:50:02.739Z,7.65
2022-10-29T08:52:36.208Z,8.63
2022-10-29T08:55:18.819Z,8.18
2022-10-29T08:58:00.684Z,8.43
2022-10-29T09:00:38.656Z,8.85
2022-10-29T09:03:13.895Z,8.00
2022-10-29T09:05:59.799Z,7.95
2022-10-29T09:08:38.742Z,7.90
2022-10-29T09:11:30.231Z,8.23
2022-10-29T09:14:20.435Z,7.90
2022-10-29T09:16:59.671Z,8.15
2022-10-29T09:19:54.257Z,7.87
2022-10-29T09:22:38.940Z,7.30
2022-10-29T09:25:18.248Z,8.30
2022-10-29T09:28:13.012Z,7.78
2022-10-29T09:30:52.218Z,6.58
2022-10-29T09:33:24.762Z,6.97
2022-10-29T09:35:58.273Z,6.62
2022-10-29T09:38:34.548Z,6.90
2022-10-29T09:41:05.512Z,6.70
2022-10-29T09:43:47.693Z,6.10
2022-10-29T09:46:23.883Z,5.90
2022-10-29T09:48:57.439Z,6.47
2022-10-29T09:51:36.879Z,5.95
2022-10-29T09:54:07.565Z,6.60
2022-10-29T09:56:41.030Z,6.75
2022-10-29T09:59:14.490Z,6.92
2022-10-29T10:01:46.453Z,6.47
2022-10-29T10:04:31.322Z,6.60
2022-10-29T10:07:13.711Z,6.47
2022-10-29T10:09:58.344Z,6.45
2022-10-29T10:12:40.591Z,6.95
2022-10-29T10:15:22.911Z,6.67
2022-10-29T10:18:07.984Z,7.20
2022-10-29T10:20:47.125Z,7.10
2022-10-29T10:23:21.504Z,7.40
2022-10-29T10:26:00.388Z,6.95
2022-10-29T10:28:31.494Z,7.22
2022-10-29T10:31:17.872Z,6.70
2022-10-29T10:33:54.263Z,6.72
2022-10-29T10:36:30.206Z,6.90
2022-10-29T10:39:01.288Z,6.65
2022-10-29T10:41:35.079Z,7.22
2022-10-29T10:44:06.423Z,7.20
2022-10-29T10:46:40.028Z,6.45
2022-10-29T10:49:16.049Z,6.58
2022-10-29T10:51:49.283Z,6.17
2022-10-29T10:54:28.878Z,6.25
2022-10-29T10:57:04.799Z,5.72
2022-10-29T10:59:47.336Z,6.62
2022-10-29T11:02:29.828Z,6.75
2022-10-29T11:05:18.809Z,6.75
2022-10-29T11:08:07.262Z,6.47
2022-10-29T11:10:40.739Z,5.72
2022-10-29T11:13:17.322Z,5.97
2022-10-29T11:15:56.664Z,5.78
2022-10-29T11:18:35.796Z,6.42
2022-10-29T11:21:14.986Z,7.33
2022-10-29T11:24:09.694Z,5.80
2022-10-29T11:26:58.233Z,5.55
2022-10-29T11:29:34.357Z,5.55
2022-10-29T11:32:32.020Z,5.70
2022-10-29T11:35:14.544Z,6.72
2022-10-29T11:38:00.171Z,5.50
2022-10-29T11:40:46.223Z,5.85
2022-10-29T11:43:19.262Z,5.95
2022-10-29T11:46:05.007Z,5.62
2022-10-29T11:48:41.265Z,6.45
2022-10-29T11:51:23.471Z,7.15
2022-10-29T11:54:05.723Z,6.33
2022-10-29T11:56:57.326Z,7.17
2022-10-29T11:59:52.046Z,6.28
2022-10-29T12:02:57.461Z,6.05
2022-10-29T12:05:37.076Z,6.00
2022-10-29T12:08:16.722Z,6.75
2022-10-29T12:10:53.053Z,6.35
2022-10-29T12:13:26.595Z,5.87
2022-10-29T12:16:08.634Z,6.00
2022-10-29T12:18:56.897Z,6.47
2022-10-29T12:21:33.307Z,6.40
2022-10-29T12:24:35.788Z,6.60
2022-10-29T12:27:18.262Z,5.97
2022-10-29T12:30:06.392Z,6.65
2022-10-29T12:32:55.650Z,6.35
2022-10-29T12:35:44.257Z,7.28
2022-10-29T12:38:35.492Z,6.28
2022-10-29T12:41:08.886Z,6.40
2022-10-29T12:43:41.570Z,6.83
2022-10-29T12:46:40.993Z,7.08
2022-10-29T12:49:29.341Z,6.72
2022-10-29T12:52:02.821Z,6.95
2022-10-29T12:54:38.875Z,6.62
2022-10-29T12:57:18.418Z,6.60
2022-10-29T12:59:49.274Z,6.83
2022-10-29T13:02:41.084Z,6.50
2022-10-29T13:05:13.869Z,6.55
2022-10-29T13:07:49.964Z,7.53
2022-10-29T13:10:35.246Z,6.85
2022-10-29T13:13:20.945Z,6.60
2022-10-29T13:16:05.977Z,6.05
2022-10-29T13:18:42.353Z,6.33
2022-10-29T13:21:12.970Z,8.10
2022-10-29T13:23:46.376Z,6.45
2022-10-29T13:26:19.857Z,6.10
2022-10-29T13:28:52.550Z,6.10
2022-10-29T13:31:25.993Z,6.28
2022-10-29T13:33:56.451Z,6.62
2022-10-29T13:36:31.855Z,6.53
2022-10-29T13:39:08.292Z,7.28
2022-10-29T13:41:46.287Z,7.95
2022-10-29T13:44:25.312Z,7.12
2022-10-29T13:47:04.939Z,6.90
2022-10-29T13:49:45.938Z,8.05
2022-10-29T13:52:22.069Z,7.28
2022-10-29T13:55:01.337Z,6.92
2022-10-29T13:57:46.575Z,6.42
2022-10-29T14:00:20.281Z,7.25
2022-10-29T14:03:05.093Z,7.67
2022-10-29T14:05:41.135Z,7.08
2022-10-29T14:08:23.236Z,6.65
2022-10-29T14:10:57.979Z,7.20
2022-10-29T14:13:34.223Z,7.00
2022-10-29T14:16:07.669Z,7.55
2022-10-29T14:18:45.734Z,7.00
2022-10-29T14:21:24.445Z,6.58
2022-10-29T14:24:08.747Z,7.20
2022-10-29T14:26:41.912Z,6.67
2022-10-29T14:29:26.364Z,7.60
2022-10-29T14:32:19.739Z,7.42
2022-10-29T14:34:51.951Z,7.12
2022-10-29T14:37:25.407Z,7.45
2022-10-29T14:39:59.317Z,7.03
2022-10-29T14:42:47.830Z,8.23
2022-10-29T14:45:28.376Z,7.03
2022-10-29T14:48:05.305Z,8.65
2022-10-29T14:50:36.309Z,7.83
2022-10-29T14:53:09.388Z,7.37
2022-10-29T14:55:41.937Z,8.25
2022-10-29T14:58:27.079Z,7.22
2022-10-29T15:01:00.229Z,7.67
2022-10-29T15:03:35.664Z,7.67
2022-10-29T15:06:22.016Z,9.48
2022-10-29T15:09:07.411Z,7.65
2022-10-29T15:11:40.777Z,8.30
2022-10-29T15:14:37.905Z,8.58
2022-10-29T15:17:11.561Z,7.67
2022-10-29T15:19:45.665Z,8.05
2022-10-29T15:22:19.127Z,8.58
2022-10-29T15:24:51.268Z,8.40
2022-10-29T15:27:24.440Z,8.28
2022-10-29T15:29:56.227Z,8.53
2022-10-29T15:32:31.419Z,8.43
2022-10-29T15:35:01.378Z,9.23
2022-10-29T15:37:43.973Z,9.58
2022-10-29T15:40:19.170Z,8.88
2022-10-29T15:42:50.028Z,20.10
2022-10-29T15:45:28.959Z,21.48
2022-10-29T15:48:12.156Z,32.78
2022-10-29T15:50:45.491Z,13.08
2022-10-29T15:53:17.839Z,9.58
2022-10-29T15:55:51.816Z,12.80
2022-10-29T15:58:23.510Z,12.93
2022-10-29T16:00:53.887Z,10.28
2022-10-29T16:03:26.782Z,15.70
2022-10-29T16:06:03.691Z,29.57
2022-10-29T16:08:42.199Z,16.60
2022-10-29T16:11:15.245Z,15.48
2022-10-29T16:13:48.986Z,12.78
2022-10-29T16:16:20.324Z,15.25
2022-10-29T16:18:51.971Z,19.92
2022-10-29T16:21:25.522Z,13.80
2022-10-29T16:23:56.064Z,11.33
2022-10-29T16:26:27.490Z,10.72
2022-10-29T16:28:57.905Z,11.70
2022-10-29T16:31:29.944Z,12.45
2022-10-29T16:34:03.365Z,14.90
2022-10-29T16:36:33.729Z,13.25
2022-10-29T16:39:04.114Z,13.03
2022-10-29T16:41:35.560Z,14.38
2022-10-29T16:44:05.997Z,14.85
2022-10-29T16:46:36.415Z,10.98
2022-10-29T16:49:06.812Z,10.75
2022-10-29T16:51:37.208Z,11.75
2022-10-29T16:54:07.621Z,11.85
2022-10-29T16:56:37.941Z,12.88
2022-10-29T16:59:08.511Z,12.05
2022-10-29T17:01:38.908Z,13.22
2022-10-29T17:04:09.446Z,20.32
2022-10-29T17:06:39.880Z,41.37
2022-10-29T17:09:10.272Z,19.37
2022-10-29T17:11:40.782Z,16.55
2022-10-29T17:14:11.339Z,19.57
2022-10-29T17:16:41.737Z,16.62
2022-10-29T17:19:12.237Z,14.25
2022-10-29T17:21:42.901Z,22.17
2022-10-29T17:24:13.304Z,22.42
2022-10-29T17:26:43.774Z,16.75
2022-10-29T17:29:14.173Z,13.58
2022-10-29T17:31:44.658Z,16.90
2022-10-29T17:34:14.983Z,15.38
2022-10-29T17:36:45.299Z,16.50
2022-10-29T17:39:15.798Z,15.40
2022-10-29T17:41:46.132Z,16.12
2022-10-29T17:44:16.649Z,18.65
2022-10-29T17:46:47.040Z,14.25
2022-10-29T17:49:17.434Z,15.63
2022-10-29T17:51:47.893Z,16.87
2022-10-29T17:54:18.610Z,14.53
2022-10-29T17:56:49.084Z,13.72
2022-10-29T17:59:19.473Z,13.78
2022-10-29T18:01:50.338Z,14.75
2022-10-29T18:04:20.853Z,13.20
2022-10-29T18:06:51.365Z,16.48
2022-10-29T18:09:21.727Z,17.55
2022-10-29T18:11:52.082Z,15.45
2022-10-29T18:14:22.435Z,14.00
2022-10-29T18:16:52.896Z,15.20
2022-10-29T18:19:23.803Z,13.13
2022-10-29T18:21:54.261Z,16.77
2022-10-29T18:24:24.806Z,14.58
2022-10-29T18:26:55.139Z,26.80
2022-10-29T18:29:25.472Z,16.70
2022-10-29T18:31:55.951Z,15.25
2022-10-29T18:34:26.292Z,15.10
2022-10-29T18:36:56.607Z,14.15
2022-10-29T18:39:27.062Z,15.90
2022-10-29T18:41:57.436Z,14.93
2022-10-29T18:44:28.009Z,15.70
2022-10-29T18:46:58.536Z,15.95
2022-10-29T18:49:28.933Z,14.98
2022-10-29T18:51:59.321Z,16.15
2022-10-29T18:54:29.846Z,25.10
2022-10-29T18:57:00.405Z,18.25
2022-10-29T18:59:30.933Z,18.25
2022-10-29T19:02:01.441Z,20.30
2022-10-29T19:04:32.051Z,16.55
2022-10-29T19:07:02.432Z,17.62
2022-10-29T19:09:32.849Z,18.00
2022-10-29T19:12:03.240Z,35.35
2022-10-29T19:14:33.677Z,20.30
2022-10-29T19:17:04.064Z,19.77
2022-10-29T19:19:34.462Z,16.82
2022-10-29T19:22:04.774Z,17.60
2022-10-29T19:24:35.168Z,15.68
2022-10-29T19:27:05.593Z,15.80
2022-10-29T19:29:36.032Z,15.63
2022-10-29T19:32:06.612Z,16.52
2022-10-29T19:37:07.418Z,15.32
2022-10-29T19:39:37.858Z,15.78
2022-10-29T19:42:08.252Z,15.93
2022-10-29T19:44:38.671Z,16.00
2022-10-29T19:47:09.016Z,16.87
2022-10-29T19:49:39.453Z,16.62
2022-10-29T19:52:09.764Z,16.45
2022-10-29T19:54:40.180Z,16.37
2022-10-29T19:57:10.526Z,16.97
2022-10-29T19:59:40.895Z,15.30
2022-10-29T20:02:12.913Z,16.37
2022-10-29T20:04:43.426Z,15.68
2022-10-29T20:07:13.837Z,15.43
2022-10-29T20:09:44.181Z,15.93
2022-10-29T20:12:14.657Z,16.30
2022-10-29T20:14:45.110Z,15.72
2022-10-29T20:17:16.659Z,17.20
2022-10-29T20:19:47.263Z,16.90
2022-10-29T20:22:17.661Z,15.35
2022-10-29T20:24:48.078Z,16.35
2022-10-29T20:27:18.599Z,15.50
2022-10-29T20:29:50.748Z,15.78
2022-10-29T20:32:21.184Z,15.68
2022-10-29T20:34:52.522Z,17.27
2022-10-29T20:37:22.982Z,15.83
2022-10-29T20:39:53.504Z,17.35
2022-10-29T20:42:24.062Z,16.45
2022-10-29T20:44:54.467Z,17.02
2022-10-29T20:47:25.013Z,15.23
2022-10-29T20:49:55.373Z,14.90
2022-10-29T20:52:25.839Z,16.45
2022-10-29T20:54:56.217Z,16.27
2022-10-29T20:57:26.543Z,16.17
2022-10-29T20:59:58.476Z,15.75
2022-10-29T21:02:29.005Z,17.02
2022-10-29T21:04:59.657Z,16.32
2022-10-29T21:07:30.069Z,16.20
2022-10-29T21:10:00.585Z,20.77
2022-10-29T21:12:30.986Z,21.75
2022-10-29T21:15:01.492Z,18.40
2022-10-29T21:17:33.588Z,16.50
2022-10-29T21:20:04.182Z,22.85
2022-10-29T21:22:34.711Z,16.48
2022-10-29T21:25:05.477Z,17.02
2022-10-29T21:27:35.965Z,17.10
2022-10-29T21:30:07.472Z,18.65
2022-10-29T21:32:37.851Z,17.90
2022-10-29T21:35:09.406Z,19.45
2022-10-29T21:37:40.037Z,17.82
2022-10-29T21:40:11.368Z,18.62
2022-10-29T21:42:41.782Z,20.50
2022-10-29T21:45:12.285Z,18.80
2022-10-29T21:47:42.697Z,16.37
2022-10-29T21:50:13.143Z,16.65
2022-10-29T21:52:43.476Z,18.55
2022-10-29T21:55:14.039Z,18.30
2022-10-29T21:57:44.802Z,19.35
2022-10-29T22:00:16.993Z,20.57
2022-10-29T22:02:47.325Z,19.52
2022-10-29T22:05:18.011Z,18.75
2022-10-29T22:07:48.385Z,19.27
2022-10-29T22:10:19.174Z,18.35
2022-10-29T22:12:49.612Z,18.55
2022-10-29T22:15:20.037Z,20.37
2022-10-29T22:17:50.440Z,18.98
2022-10-29T22:20:20.842Z,18.15
2022-10-29T22:22:51.305Z,19.17
2022-10-29T22:25:21.888Z,18.60
2022-10-29T22:27:52.302Z,18.77
2022-10-29T22:30:22.937Z,19.55
2022-10-29T22:32:53.318Z,19.25
2022-10-29T22:35:23.818Z,19.37
2022-10-29T22:37:55.627Z,18.32
2022-10-29T22:40:26.484Z,18.20
2022-10-29T22:42:57.136Z,19.05
2022-10-29T22:45:28.058Z,18.32
2022-10-29T22:47:58.405Z,18.50
2022-10-29T22:50:28.854Z,19.67
2022-10-29T22:52:59.480Z,18.27
2022-10-29T22:55:31.434Z,17.80
2022-10-29T22:58:01.795Z,17.98
2022-10-29T23:00:32.233Z,18.62
2022-10-29T23:03:02.638Z,18.67
2022-10-29T23:05:33.160Z,19.30
2022-10-29T23:08:03.546Z,18.35
2022-10-29T23:10:34.137Z,18.50
2022-10-29T23:13:04.548Z,18.98
2022-10-29T23:15:34.946Z,18.77
2022-10-29T23:18:05.455Z,18.75
2022-10-29T23:20:35.806Z,18.15
2022-10-29T23:23:06.313Z,18.82
2022-10-29T23:25:36.784Z,19.20
2022-10-29T23:28:07.180Z,19.10
2022-10-29T23:30:37.610Z,18.62
2022-10-29T23:33:07.999Z,18.27
2022-10-29T23:35:38.399Z,18.95
2022-10-29T23:38:08.808Z,18.17
2022-10-29T23:40:39.089Z,19.52
2022-10-29T23:43:09.526Z,20.05
2022-10-29T23:45:42.080Z,19.87
2022-10-29T23:48:12.885Z,20.72
2022-10-29T23:50:43.472Z,19.75
2022-10-29T23:53:14.223Z,18.85
2022-10-29T23:55:45.461Z,18.90
2022-10-29T23:58:16.816Z,19.23
